sensor_id;sensor_type;location;lat;lon;timestamp;P1;durP1;ratioP1;P2;durP2;ratioP2
9304;SDS011;4690;52.422;13.486;2022-12-08T00:04:09;10.23;;;6.23;;
9304;SDS011;4690;52.422;13.486;2022-12-08T00:06:36;7.80;;;5.70;;
9304;SDS011;4690;52.422;13.486;2022-12-08T00:09:34;6.77;;;5.40;;
9304;SDS011;4690;52.422;13.486;2022-12-08T00:14:40;8.53;;;6.10;;
9304;SDS011;4690;52.422;13.486;2022-12-08T00:17:09;8.73;;;5.90;;
9304;SDS011;4690;52.422;13.486;2022-12-08T00:19:38;9.33;;;6.23;;
9304;SDS011;4690;52.422;13.486;2022-12-08T00:22:06;10.30;;;6.87;;
9304;SDS011;4690;52.422;13.486;2022-12-08T00:24:35;10.20;;;6.87;;
9304;SDS011;4690;52.422;13.486;2022-12-08T00:27:04;8.60;;;5.97;;
9304;SDS011;4690;52.422;13.486;2022-12-08T00:29:32;8.30;;;6.30;;
9304;SDS011;4690;52.422;13.486;2022-12-08T00:31:58;7.00;;;6.10;;
9304;SDS011;4690;52.422;13.486;2022-12-08T00:34:23;10.73;;;6.47;;
9304;SDS011;4690;52.422;13.486;2022-12-08T00:36:49;10.60;;;6.30;;
9304;SDS011;4690;52.422;13.486;2022-12-08T00:39:16;7.43;;;6.30;;
9304;SDS011;4690;52.422;13.486;2022-12-08T00:41:42;8.43;;;5.83;;
9304;SDS011;4690;52.422;13.486;2022-12-08T00:44:27;10.80;;;6.40;;
9304;SDS011;4690;52.422;13.486;2022-12-08T00:46:53;9.23;;;6.40;;
9304;SDS011;4690;52.422;13.486;2022-12-08T00:49:19;7.83;;;6.10;;
9304;SDS011;4690;52.422;13.486;2022-12-08T00:51:45;10.73;;;6.07;;
9304;SDS011;4690;52.422;13.486;2022-12-08T00:54:11;7.30;;;5.20;;
9304;SDS011;4690;52.422;13.486;2022-12-08T00:56:37;7.53;;;5.83;;
9304;SDS011;4690;52.422;13.486;2022-12-08T00:59:04;11.43;;;6.00;;
9304;SDS011;4690;52.422;13.486;2022-12-08T01:01:32;8.73;;;6.20;;
9304;SDS011;4690;52.422;13.486;2022-12-08T01:04:09;9.17;;;5.80;;
9304;SDS011;4690;52.422;13.486;2022-12-08T01:06:39;8.07;;;6.10;;
9304;SDS011;4690;52.422;13.486;2022-12-08T01:09:06;6.83;;;5.40;;
9304;SDS011;4690;52.422;13.486;2022-12-08T01:11:33;8.53;;;6.03;;
9304;SDS011;4690;52.422;13.486;2022-12-08T01:14:00;8.47;;;5.60;;
9304;SDS011;4690;52.422;13.486;2022-12-08T01:16:27;7.90;;;5.73;;
9304;SDS011;4690;52.422;13.486;2022-12-08T01:18:57;8.73;;;5.73;;
9304;SDS011;4690;52.422;13.486;2022-12-08T01:21:24;8.37;;;5.53;;
9304;SDS011;4690;52.422;13.486;2022-12-08T01:23:51;8.40;;;5.23;;
9304;SDS011;4690;52.422;13.486;2022-12-08T01:26:17;6.63;;;5.43;;
9304;SDS011;4690;52.422;13.486;2022-12-08T01:28:45;7.43;;;5.23;;
9304;SDS011;4690;52.422;13.486;2022-12-08T01:31:12;8.93;;;5.80;;
9304;SDS011;4690;52.422;13.486;2022-12-08T01:33:42;8.77;;;5.43;;
9304;SDS011;4690;52.422;13.486;2022-12-08T01:36:09;6.30;;;5.27;;
9304;SDS011;4690;52.422;13.486;2022-12-08T01:38:44;10.60;;;5.77;;
9304;SDS011;4690;52.422;13.486;2022-12-08T01:41:12;8.27;;;5.97;;
9304;SDS011;4690;52.422;13.486;2022-12-08T01:44:50;7.43;;;5.50;;
9304;SDS011;4690;52.422;13.486;2022-12-08T01:46:48;6.63;;;5.93;;
9304;SDS011;4690;52.422;13.486;2022-12-08T01:49:18;8.20;;;6.10;;
9304;SDS011;4690;52.422;13.486;2022-12-08T01:54:30;8.90;;;6.40;;
9304;SDS011;4690;52.422;13.486;2022-12-08T01:57:02;11.27;;;7.30;;
9304;SDS011;4690;52.422;13.486;2022-12-08T01:59:41;7.97;;;6.03;;
9304;SDS011;4690;52.422;13.486;2022-12-08T02:02:18;7.63;;;6.50;;
9304;SDS011;4690;52.422;13.486;2022-12-08T02:04:44;10.50;;;7.47;;
9304;SDS011;4690;52.422;13.486;2022-12-08T02:07:10;9.90;;;6.83;;
9304;SDS011;4690;52.422;13.486;2022-12-08T02:09:39;9.60;;;6.97;;
9304;SDS011;4690;52.422;13.486;2022-12-08T02:12:07;11.73;;;7.70;;
9304;SDS011;4690;52.422;13.486;2022-12-08T02:14:34;9.10;;;6.67;;
9304;SDS011;4690;52.422;13.486;2022-12-08T02:17:03;10.00;;;7.43;;
9304;SDS011;4690;52.422;13.486;2022-12-08T02:23:04;9.93;;;7.70;;
9304;SDS011;4690;52.422;13.486;2022-12-08T02:25:56;9.30;;;7.53;;
9304;SDS011;4690;52.422;13.486;2022-12-08T02:37:34;10.27;;;8.20;;
9304;SDS011;4690;52.422;13.486;2022-12-08T02:43:03;13.47;;;8.80;;
9304;SDS011;4690;52.422;13.486;2022-12-08T02:46:00;10.93;;;8.67;;
9304;SDS011;4690;52.422;13.486;2022-12-08T02:48:33;10.93;;;8.37;;
9304;SDS011;4690;52.422;13.486;2022-12-08T02:50:59;11.70;;;8.97;;
9304;SDS011;4690;52.422;13.486;2022-12-08T02:53:26;10.70;;;8.70;;
9304;SDS011;4690;52.422;13.486;2022-12-08T03:10:48;10.13;;;8.40;;
9304;SDS011;4690;52.422;13.486;2022-12-08T03:13:47;11.97;;;8.63;;
9304;SDS011;4690;52.422;13.486;2022-12-08T03:16:23;11.70;;;8.00;;
9304;SDS011;4690;52.422;13.486;2022-12-08T03:19:02;11.27;;;8.57;;
9304;SDS011;4690;52.422;13.486;2022-12-08T03:21:52;15.10;;;8.80;;
9304;SDS011;4690;52.422;13.486;2022-12-08T03:24:26;11.10;;;8.37;;
9304;SDS011;4690;52.422;13.486;2022-12-08T03:26:58;9.43;;;8.50;;
9304;SDS011;4690;52.422;13.486;2022-12-08T03:29:35;11.23;;;8.40;;
9304;SDS011;4690;52.422;13.486;2022-12-08T03:35:03;11.30;;;8.77;;
9304;SDS011;4690;52.422;13.486;2022-12-08T03:37:37;12.97;;;9.03;;
9304;SDS011;4690;52.422;13.486;2022-12-08T03:40:05;17.77;;;9.87;;
9304;SDS011;4690;52.422;13.486;2022-12-08T03:42:35;17.23;;;9.93;;
9304;SDS011;4690;52.422;13.486;2022-12-08T03:45:01;10.43;;;9.00;;
9304;SDS011;4690;52.422;13.486;2022-12-08T03:47:28;13.23;;;9.80;;
9304;SDS011;4690;52.422;13.486;2022-12-08T03:49:54;13.33;;;10.03;;
9304;SDS011;4690;52.422;13.486;2022-12-08T03:52:20;18.17;;;10.83;;
9304;SDS011;4690;52.422;13.486;2022-12-08T03:54:46;28.33;;;12.40;;
9304;SDS011;4690;52.422;13.486;2022-12-08T03:57:11;14.20;;;11.03;;
9304;SDS011;4690;52.422;13.486;2022-12-08T03:59:37;33.17;;;13.90;;
9304;SDS011;4690;52.422;13.486;2022-12-08T04:02:03;27.20;;;13.03;;
9304;SDS011;4690;52.422;13.486;2022-12-08T04:04:29;17.50;;;12.03;;
9304;SDS011;4690;52.422;13.486;2022-12-08T04:06:55;23.37;;;13.60;;
9304;SDS011;4690;52.422;13.486;2022-12-08T04:09:20;19.23;;;13.13;;
9304;SDS011;4690;52.422;13.486;2022-12-08T04:11:47;32.60;;;14.80;;
9304;SDS011;4690;52.422;13.486;2022-12-08T04:14:13;26.17;;;14.73;;
9304;SDS011;4690;52.422;13.486;2022-12-08T04:16:39;20.37;;;13.93;;
9304;SDS011;4690;52.422;13.486;2022-12-08T04:19:05;20.97;;;14.47;;
9304;SDS011;4690;52.422;13.486;2022-12-08T04:21:30;29.83;;;17.40;;
9304;SDS011;4690;52.422;13.486;2022-12-08T04:23:57;25.93;;;16.07;;
9304;SDS011;4690;52.422;13.486;2022-12-08T04:26:22;26.87;;;15.27;;
9304;SDS011;4690;52.422;13.486;2022-12-08T04:28:48;30.23;;;17.03;;
9304;SDS011;4690;52.422;13.486;2022-12-08T04:31:14;36.23;;;18.30;;
9304;SDS011;4690;52.422;13.486;2022-12-08T04:33:40;26.07;;;17.43;;
9304;SDS011;4690;52.422;13.486;2022-12-08T04:36:06;27.63;;;18.00;;
9304;SDS011;4690;52.422;13.486;2022-12-08T04:38:32;47.73;;;21.90;;
9304;SDS011;4690;52.422;13.486;2022-12-08T04:40:59;44.90;;;21.93;;
9304;SDS011;4690;52.422;13.486;2022-12-08T04:43:26;68.73;;;24.37;;
9304;SDS011;4690;52.422;13.486;2022-12-08T04:45:52;35.97;;;20.50;;
9304;SDS011;4690;52.422;13.486;2022-12-08T04:48:18;33.03;;;19.90;;
9304;SDS011;4690;52.422;13.486;2022-12-08T04:50:44;35.80;;;20.97;;
9304;SDS011;4690;52.422;13.486;2022-12-08T04:53:11;34.50;;;20.57;;
9304;SDS011;4690;52.422;13.486;2022-12-08T04:55:38;48.83;;;22.60;;
9304;SDS011;4690;52.422;13.486;2022-12-08T04:58:10;65.93;;;25.97;;
9304;SDS011;4690;52.422;13.486;2022-12-08T05:00:38;33.07;;;20.10;;
9304;SDS011;4690;52.422;13.486;2022-12-08T05:03:04;30.97;;;20.73;;
9304;SDS011;4690;52.422;13.486;2022-12-08T05:05:30;31.63;;;21.93;;
9304;SDS011;4690;52.422;13.486;2022-12-08T05:07:56;46.30;;;21.93;;
9304;SDS011;4690;52.422;13.486;2022-12-08T05:10:21;42.73;;;21.67;;
9304;SDS011;4690;52.422;13.486;2022-12-08T05:12:47;34.13;;;21.23;;
9304;SDS011;4690;52.422;13.486;2022-12-08T05:15:13;39.00;;;20.87;;
9304;SDS011;4690;52.422;13.486;2022-12-08T05:17:39;53.57;;;23.47;;
9304;SDS011;4690;52.422;13.486;2022-12-08T05:20:05;33.33;;;19.93;;
9304;SDS011;4690;52.422;13.486;2022-12-08T05:22:31;42.23;;;21.30;;
9304;SDS011;4690;52.422;13.486;2022-12-08T05:24:57;40.30;;;22.07;;
9304;SDS011;4690;52.422;13.486;2022-12-08T05:27:23;40.73;;;21.33;;
9304;SDS011;4690;52.422;13.486;2022-12-08T05:29:48;52.67;;;23.93;;
9304;SDS011;4690;52.422;13.486;2022-12-08T05:32:14;37.37;;;20.67;;
9304;SDS011;4690;52.422;13.486;2022-12-08T05:34:41;45.10;;;22.23;;
9304;SDS011;4690;52.422;13.486;2022-12-08T05:37:07;33.33;;;20.17;;
9304;SDS011;4690;52.422;13.486;2022-12-08T05:39:32;36.10;;;21.03;;
9304;SDS011;4690;52.422;13.486;2022-12-08T05:41:58;40.90;;;22.40;;
9304;SDS011;4690;52.422;13.486;2022-12-08T05:44:24;63.73;;;25.27;;
9304;SDS011;4690;52.422;13.486;2022-12-08T05:46:51;37.03;;;20.17;;
9304;SDS011;4690;52.422;13.486;2022-12-08T05:49:17;37.27;;;20.57;;
9304;SDS011;4690;52.422;13.486;2022-12-08T05:51:43;51.07;;;22.63;;
9304;SDS011;4690;52.422;13.486;2022-12-08T05:54:09;73.47;;;25.83;;
9304;SDS011;4690;52.422;13.486;2022-12-08T05:56:35;68.70;;;24.33;;
9304;SDS011;4690;52.422;13.486;2022-12-08T05:59:01;36.03;;;20.30;;
9304;SDS011;4690;52.422;13.486;2022-12-08T06:01:32;65.90;;;25.03;;
9304;SDS011;4690;52.422;13.486;2022-12-08T06:04:01;58.77;;;23.67;;
9304;SDS011;4690;52.422;13.486;2022-12-08T06:06:28;33.33;;;19.80;;
9304;SDS011;4690;52.422;13.486;2022-12-08T06:09:01;45.97;;;22.00;;
9304;SDS011;4690;52.422;13.486;2022-12-08T06:11:28;32.47;;;20.63;;
9304;SDS011;4690;52.422;13.486;2022-12-08T06:13:56;47.57;;;23.50;;
9304;SDS011;4690;52.422;13.486;2022-12-08T06:16:23;51.87;;;23.33;;
9304;SDS011;4690;52.422;13.486;2022-12-08T06:18:51;40.67;;;21.20;;
9304;SDS011;4690;52.422;13.486;2022-12-08T06:21:17;39.43;;;21.40;;
9304;SDS011;4690;52.422;13.486;2022-12-08T06:23:46;39.57;;;20.97;;
9304;SDS011;4690;52.422;13.486;2022-12-08T06:26:17;33.73;;;20.43;;
9304;SDS011;4690;52.422;13.486;2022-12-08T06:28:43;33.00;;;20.10;;
9304;SDS011;4690;52.422;13.486;2022-12-08T06:31:17;41.47;;;21.37;;
9304;SDS011;4690;52.422;13.486;2022-12-08T06:33:45;36.57;;;21.10;;
9304;SDS011;4690;52.422;13.486;2022-12-08T06:36:13;38.40;;;21.17;;
9304;SDS011;4690;52.422;13.486;2022-12-08T06:38:41;44.57;;;22.00;;
9304;SDS011;4690;52.422;13.486;2022-12-08T06:41:07;40.23;;;22.07;;
9304;SDS011;4690;52.422;13.486;2022-12-08T06:43:33;51.63;;;23.97;;
9304;SDS011;4690;52.422;13.486;2022-12-08T06:45:59;34.47;;;21.50;;
9304;SDS011;4690;52.422;13.486;2022-12-08T06:48:28;40.10;;;20.57;;
9304;SDS011;4690;52.422;13.486;2022-12-08T06:50:54;32.63;;;19.80;;
9304;SDS011;4690;52.422;13.486;2022-12-08T06:53:19;45.50;;;22.17;;
9304;SDS011;4690;52.422;13.486;2022-12-08T06:55:54;51.80;;;23.10;;
9304;SDS011;4690;52.422;13.486;2022-12-08T06:58:20;43.23;;;22.57;;
9304;SDS011;4690;52.422;13.486;2022-12-08T07:00:45;62.67;;;25.60;;
9304;SDS011;4690;52.422;13.486;2022-12-08T07:03:11;51.93;;;23.17;;
9304;SDS011;4690;52.422;13.486;2022-12-08T07:05:38;39.30;;;21.83;;
9304;SDS011;4690;52.422;13.486;2022-12-08T07:08:06;35.00;;;20.73;;
9304;SDS011;4690;52.422;13.486;2022-12-08T07:10:33;32.87;;;20.20;;
9304;SDS011;4690;52.422;13.486;2022-12-08T07:12:59;42.20;;;21.87;;
9304;SDS011;4690;52.422;13.486;2022-12-08T07:15:25;35.03;;;21.80;;
9304;SDS011;4690;52.422;13.486;2022-12-08T07:17:51;46.93;;;23.40;;
9304;SDS011;4690;52.422;13.486;2022-12-08T07:20:17;43.17;;;20.87;;
9304;SDS011;4690;52.422;13.486;2022-12-08T07:22:49;35.17;;;20.73;;
9304;SDS011;4690;52.422;13.486;2022-12-08T07:25:17;42.00;;;22.30;;
9304;SDS011;4690;52.422;13.486;2022-12-08T07:27:43;44.50;;;22.47;;
9304;SDS011;4690;52.422;13.486;2022-12-08T07:30:09;34.13;;;21.03;;
9304;SDS011;4690;52.422;13.486;2022-12-08T07:32:37;46.37;;;22.70;;
9304;SDS011;4690;52.422;13.486;2022-12-08T07:35:04;37.33;;;22.40;;
9304;SDS011;4690;52.422;13.486;2022-12-08T07:37:31;37.93;;;21.80;;
9304;SDS011;4690;52.422;13.486;2022-12-08T07:39:59;35.77;;;22.07;;
9304;SDS011;4690;52.422;13.486;2022-12-08T07:42:25;59.20;;;23.80;;
9304;SDS011;4690;52.422;13.486;2022-12-08T07:44:50;36.20;;;20.83;;
9304;SDS011;4690;52.422;13.486;2022-12-08T07:47:16;47.83;;;22.10;;
9304;SDS011;4690;52.422;13.486;2022-12-08T07:49:42;33.90;;;21.50;;
9304;SDS011;4690;52.422;13.486;2022-12-08T07:52:07;37.30;;;22.43;;
9304;SDS011;4690;52.422;13.486;2022-12-08T07:54:33;58.93;;;25.10;;
9304;SDS011;4690;52.422;13.486;2022-12-08T07:56:59;34.50;;;22.00;;
9304;SDS011;4690;52.422;13.486;2022-12-08T07:59:27;40.37;;;22.87;;
9304;SDS011;4690;52.422;13.486;2022-12-08T08:01:53;39.53;;;21.87;;
9304;SDS011;4690;52.422;13.486;2022-12-08T08:04:19;35.83;;;21.43;;
9304;SDS011;4690;52.422;13.486;2022-12-08T08:06:45;31.30;;;19.60;;
9304;SDS011;4690;52.422;13.486;2022-12-08T08:09:10;54.57;;;22.03;;
9304;SDS011;4690;52.422;13.486;2022-12-08T08:11:36;35.13;;;19.70;;
9304;SDS011;4690;52.422;13.486;2022-12-08T08:14:02;56.73;;;22.67;;
9304;SDS011;4690;52.422;13.486;2022-12-08T08:16:27;31.53;;;19.07;;
9304;SDS011;4690;52.422;13.486;2022-12-08T08:18:53;38.67;;;20.97;;
9304;SDS011;4690;52.422;13.486;2022-12-08T08:21:19;45.43;;;21.83;;
9304;SDS011;4690;52.422;13.486;2022-12-08T08:23:46;64.77;;;24.53;;
9304;SDS011;4690;52.422;13.486;2022-12-08T08:26:11;43.30;;;21.93;;
9304;SDS011;4690;52.422;13.486;2022-12-08T08:28:37;36.83;;;20.47;;
9304;SDS011;4690;52.422;13.486;2022-12-08T08:31:04;41.07;;;21.40;;
9304;SDS011;4690;52.422;13.486;2022-12-08T08:33:31;45.80;;;22.30;;
9304;SDS011;4690;52.422;13.486;2022-12-08T08:35:56;47.73;;;21.97;;
9304;SDS011;4690;52.422;13.486;2022-12-08T08:38:23;30.77;;;20.63;;
9304;SDS011;4690;52.422;13.486;2022-12-08T08:40:50;29.93;;;20.20;;
9304;SDS011;4690;52.422;13.486;2022-12-08T08:43:15;35.50;;;20.43;;
9304;SDS011;4690;52.422;13.486;2022-12-08T08:45:57;34.23;;;20.63;;
9304;SDS011;4690;52.422;13.486;2022-12-08T08:48:25;40.60;;;21.23;;
9304;SDS011;4690;52.422;13.486;2022-12-08T08:50:53;34.93;;;20.67;;
9304;SDS011;4690;52.422;13.486;2022-12-08T08:53:20;33.00;;;21.23;;
9304;SDS011;4690;52.422;13.486;2022-12-08T08:55:46;34.17;;;21.67;;
9304;SDS011;4690;52.422;13.486;2022-12-08T08:58:12;36.37;;;19.97;;
9304;SDS011;4690;52.422;13.486;2022-12-08T09:00:38;29.83;;;18.47;;
9304;SDS011;4690;52.422;13.486;2022-12-08T09:03:03;32.43;;;20.37;;
9304;SDS011;4690;52.422;13.486;2022-12-08T09:05:30;34.13;;;19.93;;
9304;SDS011;4690;52.422;13.486;2022-12-08T09:07:55;42.50;;;21.20;;
9304;SDS011;4690;52.422;13.486;2022-12-08T09:10:21;40.17;;;21.47;;
9304;SDS011;4690;52.422;13.486;2022-12-08T09:12:48;38.67;;;20.53;;
9304;SDS011;4690;52.422;13.486;2022-12-08T09:15:14;36.53;;;20.87;;
9304;SDS011;4690;52.422;13.486;2022-12-08T09:17:39;31.10;;;19.70;;
9304;SDS011;4690;52.422;13.486;2022-12-08T09:20:05;27.33;;;17.37;;
9304;SDS011;4690;52.422;13.486;2022-12-08T09:22:32;34.10;;;18.27;;
9304;SDS011;4690;52.422;13.486;2022-12-08T09:24:58;25.43;;;17.20;;
9304;SDS011;4690;52.422;13.486;2022-12-08T09:27:23;34.33;;;19.20;;
9304;SDS011;4690;52.422;13.486;2022-12-08T09:29:50;21.77;;;18.13;;
9304;SDS011;4690;52.422;13.486;2022-12-08T09:32:16;22.97;;;16.73;;
9304;SDS011;4690;52.422;13.486;2022-12-08T09:34:41;20.87;;;16.80;;
9304;SDS011;4690;52.422;13.486;2022-12-08T09:37:08;23.50;;;16.60;;
9304;SDS011;4690;52.422;13.486;2022-12-08T09:39:34;24.73;;;17.17;;
9304;SDS011;4690;52.422;13.486;2022-12-08T09:42:00;18.83;;;16.30;;
9304;SDS011;4690;52.422;13.486;2022-12-08T09:47:36;25.27;;;16.47;;
9304;SDS011;4690;52.422;13.486;2022-12-08T09:52:48;22.20;;;16.97;;
9304;SDS011;4690;52.422;13.486;2022-12-08T09:56:03;21.70;;;16.27;;
9304;SDS011;4690;52.422;13.486;2022-12-08T10:01:17;20.20;;;16.50;;
9304;SDS011;4690;52.422;13.486;2022-12-08T10:03:45;23.17;;;16.23;;
9304;SDS011;4690;52.422;13.486;2022-12-08T10:12:13;24.37;;;16.80;;
9304;SDS011;4690;52.422;13.486;2022-12-08T10:17:53;23.00;;;16.97;;
9304;SDS011;4690;52.422;13.486;2022-12-08T10:20:25;22.90;;;16.97;;
9304;SDS011;4690;52.422;13.486;2022-12-08T10:26:02;19.77;;;15.37;;
9304;SDS011;4690;52.422;13.486;2022-12-08T10:28:46;19.87;;;15.63;;
9304;SDS011;4690;52.422;13.486;2022-12-08T10:31:20;20.87;;;16.50;;
9304;SDS011;4690;52.422;13.486;2022-12-08T10:33:54;19.43;;;15.63;;
9304;SDS011;4690;52.422;13.486;2022-12-08T10:39:33;22.63;;;16.17;;
9304;SDS011;4690;52.422;13.486;2022-12-08T10:44:58;19.97;;;15.37;;
9304;SDS011;4690;52.422;13.486;2022-12-08T10:47:34;22.43;;;15.47;;
9304;SDS011;4690;52.422;13.486;2022-12-08T10:50:05;20.83;;;16.10;;
9304;SDS011;4690;52.422;13.486;2022-12-08T10:53:10;24.27;;;16.47;;
9304;SDS011;4690;52.422;13.486;2022-12-08T11:03:44;24.83;;;16.97;;
9304;SDS011;4690;52.422;13.486;2022-12-08T11:06:18;23.50;;;16.30;;
9304;SDS011;4690;52.422;13.486;2022-12-08T11:08:51;21.37;;;15.70;;
9304;SDS011;4690;52.422;13.486;2022-12-08T11:11:50;26.73;;;17.47;;
9304;SDS011;4690;52.422;13.486;2022-12-08T11:14:31;26.53;;;16.87;;
9304;SDS011;4690;52.422;13.486;2022-12-08T11:17:14;20.67;;;16.40;;
9304;SDS011;4690;52.422;13.486;2022-12-08T11:22:36;25.30;;;17.20;;
9304;SDS011;4690;52.422;13.486;2022-12-08T11:27:38;27.90;;;18.20;;
9304;SDS011;4690;52.422;13.486;2022-12-08T11:30:12;27.97;;;17.83;;
9304;SDS011;4690;52.422;13.486;2022-12-08T11:32:43;24.83;;;17.43;;
9304;SDS011;4690;52.422;13.486;2022-12-08T11:35:18;24.57;;;16.13;;
9304;SDS011;4690;52.422;13.486;2022-12-08T11:37:57;25.90;;;17.17;;
9304;SDS011;4690;52.422;13.486;2022-12-08T11:40:34;27.13;;;18.00;;
9304;SDS011;4690;52.422;13.486;2022-12-08T11:45:58;28.13;;;17.33;;
9304;SDS011;4690;52.422;13.486;2022-12-08T11:51:28;24.03;;;16.77;;
9304;SDS011;4690;52.422;13.486;2022-12-08T11:56:58;26.67;;;17.13;;
9304;SDS011;4690;52.422;13.486;2022-12-08T11:59:28;24.57;;;17.30;;
9304;SDS011;4690;52.422;13.486;2022-12-08T12:02:06;21.23;;;15.70;;
9304;SDS011;4690;52.422;13.486;2022-12-08T12:13:45;22.30;;;14.03;;
9304;SDS011;4690;52.422;13.486;2022-12-08T12:19:22;19.60;;;13.00;;
9304;SDS011;4690;52.422;13.486;2022-12-08T12:21:54;19.57;;;13.43;;
9304;SDS011;4690;52.422;13.486;2022-12-08T12:24:23;18.30;;;12.87;;
9304;SDS011;4690;52.422;13.486;2022-12-08T12:29:44;17.23;;;12.67;;
9304;SDS011;4690;52.422;13.486;2022-12-08T12:32:24;22.70;;;13.47;;
9304;SDS011;4690;52.422;13.486;2022-12-08T12:35:03;24.13;;;14.40;;
9304;SDS011;4690;52.422;13.486;2022-12-08T12:37:41;18.30;;;13.30;;
9304;SDS011;4690;52.422;13.486;2022-12-08T12:40:20;24.03;;;13.47;;
9304;SDS011;4690;52.422;13.486;2022-12-08T12:55:59;24.73;;;14.97;;
9304;SDS011;4690;52.422;13.486;2022-12-08T13:03:49;22.00;;;14.97;;
9304;SDS011;4690;52.422;13.486;2022-12-08T13:06:40;20.20;;;14.00;;
9304;SDS011;4690;52.422;13.486;2022-12-08T13:09:21;29.67;;;15.50;;
9304;SDS011;4690;52.422;13.486;2022-12-08T13:11:55;21.10;;;14.53;;
9304;SDS011;4690;52.422;13.486;2022-12-08T13:14:32;21.27;;;14.87;;
9304;SDS011;4690;52.422;13.486;2022-12-08T13:17:03;23.90;;;15.27;;
9304;SDS011;4690;52.422;13.486;2022-12-08T13:19:36;33.57;;;16.80;;
9304;SDS011;4690;52.422;13.486;2022-12-08T13:23:00;24.43;;;15.43;;
9304;SDS011;4690;52.422;13.486;2022-12-08T13:28:11;22.43;;;16.60;;
9304;SDS011;4690;52.422;13.486;2022-12-08T13:30:44;23.77;;;16.60;;
9304;SDS011;4690;52.422;13.486;2022-12-08T13:33:37;29.97;;;17.70;;
9304;SDS011;4690;52.422;13.486;2022-12-08T13:36:10;43.97;;;19.13;;
9304;SDS011;4690;52.422;13.486;2022-12-08T13:38:53;28.70;;;16.93;;
9304;SDS011;4690;52.422;13.486;2022-12-08T13:41:34;33.53;;;18.03;;
9304;SDS011;4690;52.422;13.486;2022-12-08T13:44:12;45.10;;;19.47;;
9304;SDS011;4690;52.422;13.486;2022-12-08T13:46:50;27.37;;;17.10;;
9304;SDS011;4690;52.422;13.486;2022-12-08T13:49:29;28.40;;;18.47;;
9304;SDS011;4690;52.422;13.486;2022-12-08T13:52:08;22.33;;;16.97;;
9304;SDS011;4690;52.422;13.486;2022-12-08T13:54:54;35.67;;;19.77;;
9304;SDS011;4690;52.422;13.486;2022-12-08T13:57:26;43.37;;;21.87;;
9304;SDS011;4690;52.422;13.486;2022-12-08T13:59:59;34.40;;;19.90;;
9304;SDS011;4690;52.422;13.486;2022-12-08T14:02:46;28.07;;;17.53;;
9304;SDS011;4690;52.422;13.486;2022-12-08T14:05:16;27.73;;;17.93;;
9304;SDS011;4690;52.422;13.486;2022-12-08T14:07:45;27.30;;;18.30;;
9304;SDS011;4690;52.422;13.486;2022-12-08T14:10:19;25.47;;;17.63;;
9304;SDS011;4690;52.422;13.486;2022-12-08T14:12:54;33.23;;;18.33;;
9304;SDS011;4690;52.422;13.486;2022-12-08T14:15:36;32.97;;;18.40;;
9304;SDS011;4690;52.422;13.486;2022-12-08T14:18:04;37.47;;;19.17;;
9304;SDS011;4690;52.422;13.486;2022-12-08T14:20:57;32.60;;;18.00;;
9304;SDS011;4690;52.422;13.486;2022-12-08T14:23:37;47.53;;;19.97;;
9304;SDS011;4690;52.422;13.486;2022-12-08T14:26:08;33.13;;;17.70;;
9304;SDS011;4690;52.422;13.486;2022-12-08T14:28:37;29.13;;;17.57;;
9304;SDS011;4690;52.422;13.486;2022-12-08T14:31:03;27.53;;;17.70;;
9304;SDS011;4690;52.422;13.486;2022-12-08T14:33:30;46.47;;;19.57;;
9304;SDS011;4690;52.422;13.486;2022-12-08T14:35:56;27.87;;;17.60;;
9304;SDS011;4690;52.422;13.486;2022-12-08T14:38:23;24.83;;;16.27;;
9304;SDS011;4690;52.422;13.486;2022-12-08T14:41:03;26.73;;;16.07;;
9304;SDS011;4690;52.422;13.486;2022-12-08T14:43:35;29.53;;;17.20;;
9304;SDS011;4690;52.422;13.486;2022-12-08T14:46:12;39.77;;;18.83;;
9304;SDS011;4690;52.422;13.486;2022-12-08T14:48:45;17.37;;;11.40;;
9304;SDS011;4690;52.422;13.486;2022-12-08T14:56:39;7.00;;;4.90;;
9304;SDS011;4690;52.422;13.486;2022-12-08T14:59:29;5.77;;;4.40;;
9304;SDS011;4690;52.422;13.486;2022-12-08T15:04:46;7.00;;;5.43;;
9304;SDS011;4690;52.422;13.486;2022-12-08T15:07:21;8.90;;;6.17;;
9304;SDS011;4690;52.422;13.486;2022-12-08T15:12:39;14.43;;;7.80;;
9304;SDS011;4690;52.422;13.486;2022-12-08T15:15:20;12.50;;;7.40;;
9304;SDS011;4690;52.422;13.486;2022-12-08T15:23:05;9.53;;;7.73;;
9304;SDS011;4690;52.422;13.486;2022-12-08T15:25:43;11.10;;;8.30;;
9304;SDS011;4690;52.422;13.486;2022-12-08T15:28:12;10.77;;;9.37;;
9304;SDS011;4690;52.422;13.486;2022-12-08T15:30:41;12.20;;;9.47;;
9304;SDS011;4690;52.422;13.486;2022-12-08T15:33:07;11.40;;;8.87;;
9304;SDS011;4690;52.422;13.486;2022-12-08T15:35:33;17.97;;;11.60;;
9304;SDS011;4690;52.422;13.486;2022-12-08T15:37:59;10.63;;;9.53;;
9304;SDS011;4690;52.422;13.486;2022-12-08T15:40:24;14.03;;;10.73;;
9304;SDS011;4690;52.422;13.486;2022-12-08T15:42:51;16.23;;;11.23;;
9304;SDS011;4690;52.422;13.486;2022-12-08T15:45:17;21.73;;;14.77;;
9304;SDS011;4690;52.422;13.486;2022-12-08T15:47:54;18.53;;;13.97;;
9304;SDS011;4690;52.422;13.486;2022-12-08T15:50:21;15.73;;;13.30;;
9304;SDS011;4690;52.422;13.486;2022-12-08T15:52:49;16.27;;;13.13;;
9304;SDS011;4690;52.422;13.486;2022-12-08T15:55:16;15.90;;;12.20;;
9304;SDS011;4690;52.422;13.486;2022-12-08T15:57:51;16.57;;;13.67;;
9304;SDS011;4690;52.422;13.486;2022-12-08T16:02:47;14.33;;;12.53;;
9304;SDS011;4690;52.422;13.486;2022-12-08T16:05:13;14.70;;;12.77;;
9304;SDS011;4690;52.422;13.486;2022-12-08T16:07:39;16.50;;;14.03;;
9304;SDS011;4690;52.422;13.486;2022-12-08T16:10:05;17.97;;;14.43;;
9304;SDS011;4690;52.422;13.486;2022-12-08T16:12:34;15.77;;;13.97;;
9304;SDS011;4690;52.422;13.486;2022-12-08T16:15:18;17.33;;;13.90;;
9304;SDS011;4690;52.422;13.486;2022-12-08T16:17:44;20.10;;;15.00;;
9304;SDS011;4690;52.422;13.486;2022-12-08T16:20:14;27.63;;;19.43;;
9304;SDS011;4690;52.422;13.486;2022-12-08T16:22:42;22.40;;;17.20;;
9304;SDS011;4690;52.422;13.486;2022-12-08T16:25:09;34.80;;;20.17;;
9304;SDS011;4690;52.422;13.486;2022-12-08T16:27:37;24.37;;;18.80;;
9304;SDS011;4690;52.422;13.486;2022-12-08T16:30:10;27.73;;;20.57;;
9304;SDS011;4690;52.422;13.486;2022-12-08T16:32:40;28.00;;;21.77;;
9304;SDS011;4690;52.422;13.486;2022-12-08T16:35:06;27.20;;;21.13;;
9304;SDS011;4690;52.422;13.486;2022-12-08T16:37:33;36.30;;;24.60;;
9304;SDS011;4690;52.422;13.486;2022-12-08T16:39:58;23.97;;;19.97;;
9304;SDS011;4690;52.422;13.486;2022-12-08T16:42:25;24.37;;;19.77;;
9304;SDS011;4690;52.422;13.486;2022-12-08T16:45:13;36.63;;;23.57;;
9304;SDS011;4690;52.422;13.486;2022-12-08T16:47:45;30.43;;;23.30;;
9304;SDS011;4690;52.422;13.486;2022-12-08T16:50:22;30.90;;;22.33;;
9304;SDS011;4690;52.422;13.486;2022-12-08T16:55:25;27.83;;;20.33;;
9304;SDS011;4690;52.422;13.486;2022-12-08T16:57:52;22.37;;;19.00;;
9304;SDS011;4690;52.422;13.486;2022-12-08T17:00:27;28.23;;;19.27;;
9304;SDS011;4690;52.422;13.486;2022-12-08T17:02:55;24.90;;;18.87;;
9304;SDS011;4690;52.422;13.486;2022-12-08T17:05:23;57.70;;;29.07;;
9304;SDS011;4690;52.422;13.486;2022-12-08T17:07:50;38.07;;;26.03;;
9304;SDS011;4690;52.422;13.486;2022-12-08T17:10:19;35.43;;;25.80;;
9304;SDS011;4690;52.422;13.486;2022-12-08T17:12:52;48.63;;;29.77;;
9304;SDS011;4690;52.422;13.486;2022-12-08T17:15:19;32.00;;;27.07;;
9304;SDS011;4690;52.422;13.486;2022-12-08T17:17:47;46.33;;;27.90;;
9304;SDS011;4690;52.422;13.486;2022-12-08T17:20:14;35.73;;;26.20;;
9304;SDS011;4690;52.422;13.486;2022-12-08T17:22:47;31.63;;;24.00;;
9304;SDS011;4690;52.422;13.486;2022-12-08T17:25:14;50.40;;;28.60;;